sensor_id;sensor_type;location;lat;lon;timestamp;P1;durP1;ratioP1;P2;durP2;ratioP2
75820;SDS011;64454;51.984;9.838;2022-12-07T00:01:26;25.23;;;16.63;;
75820;SDS011;64454;51.984;9.838;2022-12-07T00:03:56;26.85;;;15.70;;
75820;SDS011;64454;51.984;9.838;2022-12-07T00:06:29;29.08;;;16.08;;
75820;SDS011;64454;51.984;9.838;2022-12-07T00:08:57;22.85;;;14.25;;
75820;SDS011;64454;51.984;9.838;2022-12-07T00:11:24;22.50;;;14.70;;
75820;SDS011;64454;51.984;9.838;2022-12-07T00:13:52;19.55;;;13.20;;
75820;SDS011;64454;51.984;9.838;2022-12-07T00:16:24;20.50;;;13.70;;
75820;SDS011;64454;51.984;9.838;2022-12-07T00:18:53;19.55;;;13.50;;
75820;SDS011;64454;51.984;9.838;2022-12-07T00:21:22;17.77;;;13.23;;
75820;SDS011;64454;51.984;9.838;2022-12-07T00:23:52;24.53;;;13.27;;
75820;SDS011;64454;51.984;9.838;2022-12-07T00:26:22;17.95;;;12.82;;
75820;SDS011;64454;51.984;9.838;2022-12-07T00:28:52;16.67;;;12.07;;
75820;SDS011;64454;51.984;9.838;2022-12-07T00:31:23;17.85;;;12.50;;
75820;SDS011;64454;51.984;9.838;2022-12-07T00:33:53;15.70;;;11.07;;
75820;SDS011;64454;51.984;9.838;2022-12-07T00:36:22;17.63;;;12.32;;
75820;SDS011;64454;51.984;9.838;2022-12-07T00:38:50;15.50;;;10.90;;
75820;SDS011;64454;51.984;9.838;2022-12-07T00:41:18;17.15;;;11.48;;
75820;SDS011;64454;51.984;9.838;2022-12-07T00:43:48;15.30;;;10.63;;
75820;SDS011;64454;51.984;9.838;2022-12-07T00:46:17;17.30;;;11.27;;
75820;SDS011;64454;51.984;9.838;2022-12-07T00:48:47;16.10;;;11.18;;
75820;SDS011;64454;51.984;9.838;2022-12-07T00:51:17;16.30;;;11.30;;
75820;SDS011;64454;51.984;9.838;2022-12-07T00:53:46;15.75;;;11.45;;
75820;SDS011;64454;51.984;9.838;2022-12-07T00:56:14;12.77;;;10.13;;
75820;SDS011;64454;51.984;9.838;2022-12-07T00:58:43;11.90;;;9.18;;
75820;SDS011;64454;51.984;9.838;2022-12-07T01:01:15;14.93;;;10.30;;
75820;SDS011;64454;51.984;9.838;2022-12-07T01:03:42;14.32;;;10.75;;
75820;SDS011;64454;51.984;9.838;2022-12-07T01:06:13;13.70;;;10.27;;
75820;SDS011;64454;51.984;9.838;2022-12-07T01:08:41;13.65;;;9.88;;
75820;SDS011;64454;51.984;9.838;2022-12-07T01:11:09;12.88;;;9.65;;
75820;SDS011;64454;51.984;9.838;2022-12-07T01:13:40;13.40;;;10.17;;
75820;SDS011;64454;51.984;9.838;2022-12-07T01:16:07;13.40;;;10.00;;
75820;SDS011;64454;51.984;9.838;2022-12-07T01:18:37;14.57;;;9.87;;
75820;SDS011;64454;51.984;9.838;2022-12-07T01:21:05;13.02;;;10.30;;
75820;SDS011;64454;51.984;9.838;2022-12-07T01:23:37;14.98;;;10.65;;
75820;SDS011;64454;51.984;9.838;2022-12-07T01:26:05;13.27;;;9.52;;
75820;SDS011;64454;51.984;9.838;2022-12-07T01:28:36;15.43;;;10.30;;
75820;SDS011;64454;51.984;9.838;2022-12-07T01:31:04;14.02;;;10.90;;
75820;SDS011;64454;51.984;9.838;2022-12-07T01:33:35;15.30;;;9.90;;
75820;SDS011;64454;51.984;9.838;2022-12-07T01:36:04;13.70;;;10.05;;
75820;SDS011;64454;51.984;9.838;2022-12-07T01:38:34;12.75;;;10.38;;
75820;SDS011;64454;51.984;9.838;2022-12-07T01:41:02;13.48;;;9.98;;
75820;SDS011;64454;51.984;9.838;2022-12-07T01:43:29;11.68;;;9.50;;
75820;SDS011;64454;51.984;9.838;2022-12-07T01:45:59;11.98;;;9.25;;
75820;SDS011;64454;51.984;9.838;2022-12-07T01:48:27;12.30;;;9.68;;
75820;SDS011;64454;51.984;9.838;2022-12-07T01:51:00;12.97;;;9.40;;
75820;SDS011;64454;51.984;9.838;2022-12-07T01:53:31;11.20;;;9.00;;
75820;SDS011;64454;51.984;9.838;2022-12-07T01:56:03;11.73;;;9.35;;
75820;SDS011;64454;51.984;9.838;2022-12-07T01:58:35;11.90;;;9.25;;
75820;SDS011;64454;51.984;9.838;2022-12-07T02:01:03;13.77;;;10.23;;
75820;SDS011;64454;51.984;9.838;2022-12-07T02:03:31;13.18;;;10.18;;
75820;SDS011;64454;51.984;9.838;2022-12-07T02:06:04;11.20;;;8.93;;
75820;SDS011;64454;51.984;9.838;2022-12-07T02:08:33;12.65;;;9.63;;
75820;SDS011;64454;51.984;9.838;2022-12-07T02:11:00;12.37;;;9.80;;
75820;SDS011;64454;51.984;9.838;2022-12-07T02:13:31;12.52;;;9.35;;
75820;SDS011;64454;51.984;9.838;2022-12-07T02:16:08;13.63;;;9.40;;
75820;SDS011;64454;51.984;9.838;2022-12-07T02:18:51;12.37;;;9.93;;
75820;SDS011;64454;51.984;9.838;2022-12-07T02:21:41;14.85;;;10.68;;
75820;SDS011;64454;51.984;9.838;2022-12-07T02:24:30;18.17;;;12.60;;
75820;SDS011;64454;51.984;9.838;2022-12-07T02:30:11;18.73;;;12.68;;
75820;SDS011;64454;51.984;9.838;2022-12-07T02:32:42;17.92;;;12.65;;
75820;SDS011;64454;51.984;9.838;2022-12-07T02:35:19;19.15;;;13.80;;
75820;SDS011;64454;51.984;9.838;2022-12-07T02:37:58;20.55;;;14.00;;
75820;SDS011;64454;51.984;9.838;2022-12-07T02:40:36;21.27;;;13.23;;
75820;SDS011;64454;51.984;9.838;2022-12-07T02:43:12;16.20;;;11.60;;
75820;SDS011;64454;51.984;9.838;2022-12-07T02:45:47;17.75;;;12.63;;
75820;SDS011;64454;51.984;9.838;2022-12-07T02:48:18;17.15;;;12.57;;
75820;SDS011;64454;51.984;9.838;2022-12-07T02:50:48;16.33;;;12.52;;
75820;SDS011;64454;51.984;9.838;2022-12-07T02:53:28;18.00;;;12.77;;
75820;SDS011;64454;51.984;9.838;2022-12-07T02:55:58;20.55;;;13.75;;
75820;SDS011;64454;51.984;9.838;2022-12-07T02:58:33;21.67;;;13.88;;
75820;SDS011;64454;51.984;9.838;2022-12-07T03:01:19;18.75;;;12.30;;
75820;SDS011;64454;51.984;9.838;2022-12-07T03:03:58;17.75;;;12.93;;
75820;SDS011;64454;51.984;9.838;2022-12-07T03:06:42;21.70;;;13.75;;
75820;SDS011;64454;51.984;9.838;2022-12-07T03:09:18;17.58;;;12.63;;
75820;SDS011;64454;51.984;9.838;2022-12-07T03:11:55;16.83;;;11.75;;
75820;SDS011;64454;51.984;9.838;2022-12-07T03:14:35;16.52;;;11.90;;
75820;SDS011;64454;51.984;9.838;2022-12-07T03:17:10;15.02;;;10.60;;
75820;SDS011;64454;51.984;9.838;2022-12-07T03:19:45;17.25;;;11.70;;
75820;SDS011;64454;51.984;9.838;2022-12-07T03:22:15;14.65;;;10.55;;
75820;SDS011;64454;51.984;9.838;2022-12-07T03:24:45;14.48;;;10.88;;
75820;SDS011;64454;51.984;9.838;2022-12-07T03:27:18;15.33;;;11.00;;
75820;SDS011;64454;51.984;9.838;2022-12-07T03:29:52;14.75;;;10.50;;
75820;SDS011;64454;51.984;9.838;2022-12-07T03:32:27;15.32;;;10.93;;
75820;SDS011;64454;51.984;9.838;2022-12-07T03:35:03;18.23;;;11.55;;
75820;SDS011;64454;51.984;9.838;2022-12-07T03:37:38;15.13;;;10.90;;
75820;SDS011;64454;51.984;9.838;2022-12-07T03:40:13;15.07;;;10.70;;
75820;SDS011;64454;51.984;9.838;2022-12-07T03:42:48;16.73;;;10.67;;
75820;SDS011;64454;51.984;9.838;2022-12-07T03:45:16;14.70;;;10.10;;
75820;SDS011;64454;51.984;9.838;2022-12-07T03:47:47;15.65;;;10.50;;
75820;SDS011;64454;51.984;9.838;2022-12-07T03:50:27;15.50;;;10.05;;
75820;SDS011;64454;51.984;9.838;2022-12-07T03:53:04;14.75;;;10.43;;
75820;SDS011;64454;51.984;9.838;2022-12-07T03:55:41;13.30;;;9.32;;
75820;SDS011;64454;51.984;9.838;2022-12-07T03:58:12;13.20;;;9.05;;
75820;SDS011;64454;51.984;9.838;2022-12-07T04:00:45;12.52;;;8.98;;
75820;SDS011;64454;51.984;9.838;2022-12-07T04:03:14;13.38;;;9.40;;
75820;SDS011;64454;51.984;9.838;2022-12-07T04:05:41;13.48;;;9.35;;
75820;SDS011;64454;51.984;9.838;2022-12-07T04:08:09;15.27;;;9.68;;
75820;SDS011;64454;51.984;9.838;2022-12-07T04:10:36;14.98;;;9.77;;
75820;SDS011;64454;51.984;9.838;2022-12-07T04:13:03;13.87;;;9.70;;
75820;SDS011;64454;51.984;9.838;2022-12-07T04:15:30;14.73;;;9.32;;
75820;SDS011;64454;51.984;9.838;2022-12-07T04:17:57;13.15;;;9.68;;
75820;SDS011;64454;51.984;9.838;2022-12-07T04:20:25;13.20;;;8.60;;
75820;SDS011;64454;51.984;9.838;2022-12-07T04:22:52;14.07;;;9.60;;
75820;SDS011;64454;51.984;9.838;2022-12-07T04:25:19;15.73;;;9.93;;
75820;SDS011;64454;51.984;9.838;2022-12-07T04:27:46;15.73;;;9.07;;
75820;SDS011;64454;51.984;9.838;2022-12-07T04:30:13;10.98;;;8.55;;
75820;SDS011;64454;51.984;9.838;2022-12-07T04:32:40;11.23;;;8.48;;
75820;SDS011;64454;51.984;9.838;2022-12-07T04:35:07;12.57;;;8.07;;
75820;SDS011;64454;51.984;9.838;2022-12-07T04:37:36;12.05;;;7.90;;
75820;SDS011;64454;51.984;9.838;2022-12-07T04:40:04;12.43;;;8.55;;
75820;SDS011;64454;51.984;9.838;2022-12-07T04:42:35;13.27;;;8.00;;
75820;SDS011;64454;51.984;9.838;2022-12-07T04:45:03;13.50;;;7.78;;
75820;SDS011;64454;51.984;9.838;2022-12-07T04:47:31;13.73;;;8.93;;
75820;SDS011;64454;51.984;9.838;2022-12-07T04:49:58;12.80;;;8.00;;
75820;SDS011;64454;51.984;9.838;2022-12-07T04:52:25;12.30;;;8.27;;
75820;SDS011;64454;51.984;9.838;2022-12-07T04:54:53;9.57;;;7.00;;
75820;SDS011;64454;51.984;9.838;2022-12-07T04:57:20;13.35;;;8.18;;
75820;SDS011;64454;51.984;9.838;2022-12-07T04:59:47;11.25;;;7.90;;
75820;SDS011;64454;51.984;9.838;2022-12-07T05:02:14;11.13;;;7.20;;
75820;SDS011;64454;51.984;9.838;2022-12-07T05:04:41;10.05;;;6.63;;
75820;SDS011;64454;51.984;9.838;2022-12-07T05:07:07;11.52;;;6.63;;
75820;SDS011;64454;51.984;9.838;2022-12-07T05:09:34;13.75;;;6.57;;
75820;SDS011;64454;51.984;9.838;2022-12-07T05:12:03;12.95;;;6.70;;
75820;SDS011;64454;51.984;9.838;2022-12-07T05:14:30;11.50;;;6.55;;
75820;SDS011;64454;51.984;9.838;2022-12-07T05:16:57;13.30;;;6.57;;
75820;SDS011;64454;51.984;9.838;2022-12-07T05:19:23;11.73;;;6.82;;
75820;SDS011;64454;51.984;9.838;2022-12-07T05:21:51;12.02;;;6.30;;
75820;SDS011;64454;51.984;9.838;2022-12-07T05:24:18;10.05;;;6.35;;
75820;SDS011;64454;51.984;9.838;2022-12-07T05:26:45;10.40;;;5.70;;
75820;SDS011;64454;51.984;9.838;2022-12-07T05:29:14;15.07;;;6.80;;
75820;SDS011;64454;51.984;9.838;2022-12-07T05:31:42;12.73;;;6.30;;
75820;SDS011;64454;51.984;9.838;2022-12-07T05:34:10;11.50;;;6.10;;
75820;SDS011;64454;51.984;9.838;2022-12-07T05:36:38;12.68;;;6.32;;
75820;SDS011;64454;51.984;9.838;2022-12-07T05:39:06;11.52;;;6.90;;
75820;SDS011;64454;51.984;9.838;2022-12-07T05:41:33;11.48;;;7.28;;
75820;SDS011;64454;51.984;9.838;2022-12-07T05:44:19;7.47;;;6.15;;
75820;SDS011;64454;51.984;9.838;2022-12-07T05:46:46;10.60;;;6.47;;
75820;SDS011;64454;51.984;9.838;2022-12-07T05:49:13;12.98;;;7.07;;
75820;SDS011;64454;51.984;9.838;2022-12-07T05:51:40;9.90;;;6.45;;
75820;SDS011;64454;51.984;9.838;2022-12-07T05:54:07;11.10;;;6.32;;
75820;SDS011;64454;51.984;9.838;2022-12-07T05:56:34;9.95;;;6.20;;
75820;SDS011;64454;51.984;9.838;2022-12-07T05:59:01;12.63;;;6.88;;
75820;SDS011;64454;51.984;9.838;2022-12-07T06:01:47;10.68;;;6.78;;
75820;SDS011;64454;51.984;9.838;2022-12-07T06:04:14;10.93;;;6.07;;
75820;SDS011;64454;51.984;9.838;2022-12-07T06:06:41;9.82;;;7.20;;
75820;SDS011;64454;51.984;9.838;2022-12-07T06:09:08;9.27;;;6.37;;
75820;SDS011;64454;51.984;9.838;2022-12-07T06:11:35;8.65;;;6.13;;
75820;SDS011;64454;51.984;9.838;2022-12-07T06:14:20;10.20;;;6.50;;
75820;SDS011;64454;51.984;9.838;2022-12-07T06:16:48;9.40;;;6.10;;
75820;SDS011;64454;51.984;9.838;2022-12-07T06:19:15;12.27;;;6.82;;
75820;SDS011;64454;51.984;9.838;2022-12-07T06:21:42;10.98;;;6.32;;
75820;SDS011;64454;51.984;9.838;2022-12-07T06:24:10;12.82;;;6.63;;
75820;SDS011;64454;51.984;9.838;2022-12-07T06:26:38;9.63;;;6.78;;
75820;SDS011;64454;51.984;9.838;2022-12-07T06:29:06;10.45;;;5.90;;
75820;SDS011;64454;51.984;9.838;2022-12-07T06:31:34;12.35;;;6.00;;
75820;SDS011;64454;51.984;9.838;2022-12-07T06:34:03;12.45;;;5.90;;
75820;SDS011;64454;51.984;9.838;2022-12-07T06:36:32;11.85;;;6.10;;
75820;SDS011;64454;51.984;9.838;2022-12-07T06:38:59;8.00;;;5.95;;
75820;SDS011;64454;51.984;9.838;2022-12-07T06:41:27;10.63;;;5.70;;
75820;SDS011;64454;51.984;9.838;2022-12-07T06:43:54;8.18;;;5.00;;
75820;SDS011;64454;51.984;9.838;2022-12-07T06:46:21;10.02;;;5.40;;
75820;SDS011;64454;51.984;9.838;2022-12-07T06:48:48;10.48;;;5.78;;
75820;SDS011;64454;51.984;9.838;2022-12-07T06:51:17;8.30;;;4.75;;
75820;SDS011;64454;51.984;9.838;2022-12-07T06:53:44;9.63;;;5.30;;
75820;SDS011;64454;51.984;9.838;2022-12-07T06:56:11;9.75;;;5.78;;
75820;SDS011;64454;51.984;9.838;2022-12-07T06:58:38;11.23;;;5.53;;
75820;SDS011;64454;51.984;9.838;2022-12-07T07:01:08;13.50;;;5.72;;
75820;SDS011;64454;51.984;9.838;2022-12-07T07:03:37;10.30;;;5.55;;
75820;SDS011;64454;51.984;9.838;2022-12-07T07:06:04;10.73;;;5.22;;
75820;SDS011;64454;51.984;9.838;2022-12-07T07:08:34;6.90;;;5.30;;
75820;SDS011;64454;51.984;9.838;2022-12-07T07:11:02;7.82;;;4.88;;
75820;SDS011;64454;51.984;9.838;2022-12-07T07:13:29;7.90;;;4.47;;
75820;SDS011;64454;51.984;9.838;2022-12-07T07:15:57;8.10;;;5.00;;
75820;SDS011;64454;51.984;9.838;2022-12-07T07:18:24;10.20;;;5.30;;
75820;SDS011;64454;51.984;9.838;2022-12-07T07:20:51;7.60;;;4.65;;
75820;SDS011;64454;51.984;9.838;2022-12-07T07:23:19;8.73;;;4.97;;
75820;SDS011;64454;51.984;9.838;2022-12-07T07:25:48;9.00;;;5.40;;
75820;SDS011;64454;51.984;9.838;2022-12-07T07:28:15;7.03;;;4.70;;
75820;SDS011;64454;51.984;9.838;2022-12-07T07:30:43;8.93;;;5.32;;
75820;SDS011;64454;51.984;9.838;2022-12-07T07:33:10;12.02;;;5.50;;
75820;SDS011;64454;51.984;9.838;2022-12-07T07:35:39;9.07;;;4.65;;
75820;SDS011;64454;51.984;9.838;2022-12-07T07:38:06;10.30;;;4.95;;
75820;SDS011;64454;51.984;9.838;2022-12-07T07:40:33;6.75;;;4.25;;
75820;SDS011;64454;51.984;9.838;2022-12-07T07:43:02;7.37;;;4.03;;
75820;SDS011;64454;51.984;9.838;2022-12-07T07:45:29;6.15;;;3.90;;
75820;SDS011;64454;51.984;9.838;2022-12-07T07:47:56;7.15;;;3.75;;
75820;SDS011;64454;51.984;9.838;2022-12-07T07:50:23;5.20;;;3.50;;
75820;SDS011;64454;51.984;9.838;2022-12-07T07:52:50;6.90;;;3.60;;
75820;SDS011;64454;51.984;9.838;2022-12-07T07:55:18;7.03;;;3.35;;
75820;SDS011;64454;51.984;9.838;2022-12-07T07:57:45;5.25;;;3.90;;
75820;SDS011;64454;51.984;9.838;2022-12-07T08:00:14;4.65;;;3.33;;
75820;SDS011;64454;51.984;9.838;2022-12-07T08:02:42;4.87;;;3.77;;
75820;SDS011;64454;51.984;9.838;2022-12-07T08:05:09;8.40;;;4.47;;
75820;SDS011;64454;51.984;9.838;2022-12-07T08:07:38;8.32;;;4.65;;
75820;SDS011;64454;51.984;9.838;2022-12-07T08:10:05;7.43;;;4.72;;
75820;SDS011;64454;51.984;9.838;2022-12-07T08:12:35;10.05;;;4.35;;
75820;SDS011;64454;51.984;9.838;2022-12-07T08:15:25;7.85;;;3.70;;
75820;SDS011;64454;51.984;9.838;2022-12-07T08:17:54;7.55;;;3.78;;
75820;SDS011;64454;51.984;9.838;2022-12-07T08:20:21;6.13;;;3.30;;
75820;SDS011;64454;51.984;9.838;2022-12-07T08:22:48;7.40;;;3.50;;
75820;SDS011;64454;51.984;9.838;2022-12-07T08:25:15;6.07;;;2.90;;
75820;SDS011;64454;51.984;9.838;2022-12-07T08:27:42;5.88;;;3.28;;
75820;SDS011;64454;51.984;9.838;2022-12-07T08:30:09;4.45;;;2.92;;
75820;SDS011;64454;51.984;9.838;2022-12-07T08:32:38;5.60;;;3.03;;
75820;SDS011;64454;51.984;9.838;2022-12-07T08:35:05;7.05;;;2.60;;
75820;SDS011;64454;51.984;9.838;2022-12-07T08:37:33;5.95;;;2.70;;
75820;SDS011;64454;51.984;9.838;2022-12-07T08:40:02;4.67;;;2.50;;
75820;SDS011;64454;51.984;9.838;2022-12-07T08:42:30;5.82;;;2.70;;
75820;SDS011;64454;51.984;9.838;2022-12-07T08:45:03;7.38;;;2.90;;
75820;SDS011;64454;51.984;9.838;2022-12-07T08:47:31;6.22;;;3.03;;
75820;SDS011;64454;51.984;9.838;2022-12-07T08:50:01;4.65;;;2.92;;
75820;SDS011;64454;51.984;9.838;2022-12-07T08:52:31;4.30;;;2.65;;
75820;SDS011;64454;51.984;9.838;2022-12-07T08:55:00;4.60;;;2.63;;
75820;SDS011;64454;51.984;9.838;2022-12-07T08:57:30;6.68;;;2.80;;
75820;SDS011;64454;51.984;9.838;2022-12-07T09:00:02;7.77;;;3.50;;
75820;SDS011;64454;51.984;9.838;2022-12-07T09:02:30;8.50;;;3.90;;
75820;SDS011;64454;51.984;9.838;2022-12-07T09:04:58;7.10;;;3.97;;
75820;SDS011;64454;51.984;9.838;2022-12-07T09:07:26;7.60;;;3.63;;
75820;SDS011;64454;51.984;9.838;2022-12-07T09:09:53;6.82;;;3.50;;
75820;SDS011;64454;51.984;9.838;2022-12-07T09:12:21;4.03;;;3.10;;
75820;SDS011;64454;51.984;9.838;2022-12-07T09:14:47;4.97;;;3.25;;
75820;SDS011;64454;51.984;9.838;2022-12-07T09:17:14;5.93;;;3.25;;
75820;SDS011;64454;51.984;9.838;2022-12-07T09:19:41;7.13;;;3.58;;
75820;SDS011;64454;51.984;9.838;2022-12-07T09:22:08;5.40;;;3.80;;
75820;SDS011;64454;51.984;9.838;2022-12-07T09:24:37;6.47;;;3.40;;
75820;SDS011;64454;51.984;9.838;2022-12-07T09:27:04;4.38;;;3.10;;
75820;SDS011;64454;51.984;9.838;2022-12-07T09:29:31;5.28;;;2.90;;
75820;SDS011;64454;51.984;9.838;2022-12-07T09:31:57;4.68;;;2.92;;
75820;SDS011;64454;51.984;9.838;2022-12-07T09:34:25;6.85;;;3.10;;
75820;SDS011;64454;51.984;9.838;2022-12-07T09:36:52;8.70;;;3.80;;
75820;SDS011;64454;51.984;9.838;2022-12-07T09:39:19;14.93;;;4.73;;
75820;SDS011;64454;51.984;9.838;2022-12-07T09:41:47;6.63;;;3.83;;
75820;SDS011;64454;51.984;9.838;2022-12-07T09:44:17;6.40;;;3.47;;
75820;SDS011;64454;51.984;9.838;2022-12-07T09:46:49;6.63;;;3.67;;
75820;SDS011;64454;51.984;9.838;2022-12-07T09:49:18;11.13;;;3.50;;
75820;SDS011;64454;51.984;9.838;2022-12-07T09:51:55;5.68;;;2.90;;
75820;SDS011;64454;51.984;9.838;2022-12-07T09:54:28;4.47;;;2.95;;
75820;SDS011;64454;51.984;9.838;2022-12-07T09:56:58;9.97;;;3.30;;
75820;SDS011;64454;51.984;9.838;2022-12-07T09:59:25;3.30;;;2.63;;
75820;SDS011;64454;51.984;9.838;2022-12-07T10:01:52;4.40;;;2.50;;
75820;SDS011;64454;51.984;9.838;2022-12-07T10:04:20;3.35;;;2.53;;
75820;SDS011;64454;51.984;9.838;2022-12-07T10:06:51;5.03;;;2.80;;
75820;SDS011;64454;51.984;9.838;2022-12-07T10:09:19;6.75;;;3.03;;
75820;SDS011;64454;51.984;9.838;2022-12-07T10:12:03;3.55;;;2.50;;
75820;SDS011;64454;51.984;9.838;2022-12-07T10:14:34;3.60;;;2.50;;
75820;SDS011;64454;51.984;9.838;2022-12-07T10:17:12;5.10;;;2.60;;
75820;SDS011;64454;51.984;9.838;2022-12-07T10:22:55;3.92;;;2.00;;
75820;SDS011;64454;51.984;9.838;2022-12-07T10:25:26;4.53;;;2.00;;
75820;SDS011;64454;51.984;9.838;2022-12-07T10:28:00;2.97;;;1.73;;
75820;SDS011;64454;51.984;9.838;2022-12-07T10:30:45;1.77;;;1.60;;
75820;SDS011;64454;51.984;9.838;2022-12-07T10:36:14;3.90;;;2.53;;
75820;SDS011;64454;51.984;9.838;2022-12-07T10:38:46;5.37;;;2.40;;
75820;SDS011;64454;51.984;9.838;2022-12-07T10:41:16;5.32;;;2.70;;
75820;SDS011;64454;51.984;9.838;2022-12-07T10:43:49;4.82;;;2.45;;
75820;SDS011;64454;51.984;9.838;2022-12-07T10:52:56;3.30;;;2.30;;
75820;SDS011;64454;51.984;9.838;2022-12-07T10:55:41;3.15;;;2.80;;
75820;SDS011;64454;51.984;9.838;2022-12-07T10:58:35;2.40;;;2.03;;
75820;SDS011;64454;51.984;9.838;2022-12-07T11:01:21;3.17;;;2.15;;
75820;SDS011;64454;51.984;9.838;2022-12-07T11:04:08;5.70;;;3.10;;
75820;SDS011;64454;51.984;9.838;2022-12-07T11:06:58;3.30;;;2.40;;
75820;SDS011;64454;51.984;9.838;2022-12-07T11:09:49;4.05;;;2.78;;
75820;SDS011;64454;51.984;9.838;2022-12-07T11:12:33;7.95;;;3.50;;
75820;SDS011;64454;51.984;9.838;2022-12-07T11:15:16;6.68;;;3.00;;
75820;SDS011;64454;51.984;9.838;2022-12-07T11:17:51;6.78;;;3.00;;
75820;SDS011;64454;51.984;9.838;2022-12-07T11:20:34;5.80;;;3.22;;
75820;SDS011;64454;51.984;9.838;2022-12-07T11:23:13;8.02;;;3.50;;
75820;SDS011;64454;51.984;9.838;2022-12-07T11:25:54;5.00;;;2.67;;
75820;SDS011;64454;51.984;9.838;2022-12-07T11:28:37;4.90;;;2.90;;
75820;SDS011;64454;51.984;9.838;2022-12-07T11:31:28;3.83;;;2.13;;
75820;SDS011;64454;51.984;9.838;2022-12-07T11:34:21;18.83;;;9.88;;
75820;SDS011;64454;51.984;9.838;2022-12-07T11:37:00;7.65;;;3.55;;
75820;SDS011;64454;51.984;9.838;2022-12-07T11:39:35;4.32;;;2.60;;
75820;SDS011;64454;51.984;9.838;2022-12-07T11:42:09;3.58;;;2.90;;
75820;SDS011;64454;51.984;9.838;2022-12-07T11:44:45;7.25;;;4.40;;
75820;SDS011;64454;51.984;9.838;2022-12-07T11:47:20;8.50;;;4.10;;
75820;SDS011;64454;51.984;9.838;2022-12-07T11:49:58;5.57;;;2.97;;
75820;SDS011;64454;51.984;9.838;2022-12-07T11:52:42;6.50;;;4.80;;
75820;SDS011;64454;51.984;9.838;2022-12-07T11:55:18;6.35;;;3.58;;
75820;SDS011;64454;51.984;9.838;2022-12-07T11:57:52;5.10;;;3.50;;
75820;SDS011;64454;51.984;9.838;2022-12-07T12:00:29;7.70;;;3.40;;
75820;SDS011;64454;51.984;9.838;2022-12-07T12:02:57;9.35;;;3.80;;
75820;SDS011;64454;51.984;9.838;2022-12-07T12:05:33;7.05;;;3.70;;
75820;SDS011;64454;51.984;9.838;2022-12-07T12:08:02;6.40;;;2.90;;
75820;SDS011;64454;51.984;9.838;2022-12-07T12:10:42;6.07;;;3.42;;
75820;SDS011;64454;51.984;9.838;2022-12-07T12:19:37;6.90;;;3.30;;
75820;SDS011;64454;51.984;9.838;2022-12-07T12:22:14;5.47;;;3.30;;
75820;SDS011;64454;51.984;9.838;2022-12-07T12:24:46;6.60;;;3.17;;
75820;SDS011;64454;51.984;9.838;2022-12-07T12:27:19;7.20;;;3.70;;
75820;SDS011;64454;51.984;9.838;2022-12-07T12:29:52;6.78;;;2.55;;
75820;SDS011;64454;51.984;9.838;2022-12-07T12:32:23;10.13;;;3.77;;
75820;SDS011;64454;51.984;9.838;2022-12-07T12:37:54;5.20;;;3.10;;
75820;SDS011;64454;51.984;9.838;2022-12-07T12:40:42;7.90;;;3.20;;
75820;SDS011;64454;51.984;9.838;2022-12-07T12:46:37;7.50;;;3.10;;
75820;SDS011;64454;51.984;9.838;2022-12-07T12:58:36;8.75;;;2.85;;
75820;SDS011;64454;51.984;9.838;2022-12-07T13:10:35;5.30;;;2.90;;
75820;SDS011;64454;51.984;9.838;2022-12-07T13:13:28;3.90;;;2.50;;
75820;SDS011;64454;51.984;9.838;2022-12-07T13:25:20;5.03;;;2.70;;
75820;SDS011;64454;51.984;9.838;2022-12-07T13:27:59;5.25;;;2.35;;
75820;SDS011;64454;51.984;9.838;2022-12-07T13:30:38;4.68;;;2.30;;
75820;SDS011;64454;51.984;9.838;2022-12-07T13:33:13;7.22;;;2.60;;
75820;SDS011;64454;51.984;9.838;2022-12-07T13:35:44;7.13;;;2.80;;
75820;SDS011;64454;51.984;9.838;2022-12-07T13:38:22;8.60;;;3.30;;
75820;SDS011;64454;51.984;9.838;2022-12-07T13:41:10;7.88;;;3.10;;
75820;SDS011;64454;51.984;9.838;2022-12-07T13:43:45;8.32;;;3.40;;
75820;SDS011;64454;51.984;9.838;2022-12-07T13:46:17;7.60;;;3.77;;
75820;SDS011;64454;51.984;9.838;2022-12-07T13:48:53;8.38;;;2.50;;
75820;SDS011;64454;51.984;9.838;2022-12-07T13:51:21;5.38;;;2.80;;
75820;SDS011;64454;51.984;9.838;2022-12-07T13:53:52;7.60;;;3.23;;
75820;SDS011;64454;51.984;9.838;2022-12-07T13:56:27;9.70;;;3.60;;
75820;SDS011;64454;51.984;9.838;2022-12-07T13:59:00;9.05;;;3.42;;
75820;SDS011;64454;51.984;9.838;2022-12-07T14:01:30;4.57;;;2.30;;
75820;SDS011;64454;51.984;9.838;2022-12-07T14:06:56;10.73;;;3.30;;
75820;SDS011;64454;51.984;9.838;2022-12-07T14:09:24;7.72;;;2.75;;
75820;SDS011;64454;51.984;9.838;2022-12-07T14:11:55;8.90;;;3.47;;
75820;SDS011;64454;51.984;9.838;2022-12-07T14:14:24;8.50;;;3.25;;
75820;SDS011;64454;51.984;9.838;2022-12-07T14:16:59;7.75;;;2.53;;
75820;SDS011;64454;51.984;9.838;2022-12-07T14:19:46;8.80;;;2.80;;
75820;SDS011;64454;51.984;9.838;2022-12-07T14:22:21;5.55;;;2.85;;
75820;SDS011;64454;51.984;9.838;2022-12-07T14:24:58;6.55;;;3.20;;
75820;SDS011;64454;51.984;9.838;2022-12-07T14:27:49;6.70;;;2.67;;
75820;SDS011;64454;51.984;9.838;2022-12-07T14:30:21;7.43;;;2.60;;
75820;SDS011;64454;51.984;9.838;2022-12-07T14:32:51;5.60;;;2.30;;
75820;SDS011;64454;51.984;9.838;2022-12-07T14:35:22;9.10;;;4.28;;
75820;SDS011;64454;51.984;9.838;2022-12-07T14:37:49;5.75;;;1.83;;
75820;SDS011;64454;51.984;9.838;2022-12-07T14:40:17;3.30;;;1.75;;
75820;SDS011;64454;51.984;9.838;2022-12-07T14:42:50;5.10;;;2.15;;
75820;SDS011;64454;51.984;9.838;2022-12-07T14:45:21;4.05;;;2.10;;
75820;SDS011;64454;51.984;9.838;2022-12-07T14:47:49;6.32;;;2.13;;
75820;SDS011;64454;51.984;9.838;2022-12-07T14:50:17;7.03;;;1.90;;
75820;SDS011;64454;51.984;9.838;2022-12-07T14:52:47;5.50;;;1.73;;
75820;SDS011;64454;51.984;9.838;2022-12-07T14:55:20;4.35;;;2.60;;
75820;SDS011;64454;51.984;9.838;2022-12-07T14:57:52;5.33;;;2.40;;
75820;SDS011;64454;51.984;9.838;2022-12-07T15:00:21;8.95;;;2.10;;
75820;SDS011;64454;51.984;9.838;2022-12-07T15:02:50;9.13;;;2.90;;
75820;SDS011;64454;51.984;9.838;2022-12-07T15:05:18;5.27;;;2.53;;
75820;SDS011;64454;51.984;9.838;2022-12-07T15:07:46;4.38;;;2.15;;
75820;SDS011;64454;51.984;9.838;2022-12-07T15:10:16;5.93;;;2.47;;
75820;SDS011;64454;51.984;9.838;2022-12-07T15:12:45;5.55;;;1.90;;
75820;SDS011;64454;51.984;9.838;2022-12-07T15:15:14;8.13;;;2.55;;
75820;SDS011;64454;51.984;9.838;2022-12-07T15:17:42;5.80;;;2.67;;
75820;SDS011;64454;51.984;9.838;2022-12-07T15:20:10;8.35;;;2.83;;
75820;SDS011;64454;51.984;9.838;2022-12-07T15:22:39;11.65;;;3.42;;
75820;SDS011;64454;51.984;9.838;2022-12-07T15:25:07;7.20;;;2.58;;
75820;SDS011;64454;51.984;9.838;2022-12-07T15:27:38;7.67;;;2.50;;
75820;SDS011;64454;51.984;9.838;2022-12-07T15:30:05;4.90;;;2.20;;
75820;SDS011;64454;51.984;9.838;2022-12-07T15:32:35;5.97;;;2.10;;
75820;SDS011;64454;51.984;9.838;2022-12-07T15:35:02;5.82;;;1.90;;
75820;SDS011;64454;51.984;9.838;2022-12-07T15:37:29;5.82;;;2.30;;
75820;SDS011;64454;51.984;9.838;2022-12-07T15:39:56;5.05;;;2.97;;
75820;SDS011;64454;51.984;9.838;2022-12-07T15:42:23;9.70;;;4.68;;
75820;SDS011;64454;51.984;9.838;2022-12-07T15:44:50;6.22;;;3.38;;
75820;SDS011;64454;51.984;9.838;2022-12-07T15:47:28;6.20;;;2.70;;
75820;SDS011;64454;51.984;9.838;2022-12-07T15:49:57;5.53;;;2.67;;
75820;SDS011;64454;51.984;9.838;2022-12-07T15:52:23;4.03;;;2.53;;
75820;SDS011;64454;51.984;9.838;2022-12-07T15:54:50;4.80;;;2.60;;
75820;SDS011;64454;51.984;9.838;2022-12-07T15:57:17;5.72;;;2.30;;
75820;SDS011;64454;51.984;9.838;2022-12-07T15:59:44;5.78;;;2.25;;
75820;SDS011;64454;51.984;9.838;2022-12-07T16:02:12;6.32;;;2.03;;